Time;durP1;ratioP1;P1;durP2;ratioP2;P2;SDS_P1;SDS_P2;PMS_P1;PMS_P2;Temp;Humidity;BMP_temperature;BMP_pressure;BME280_temperature;BME280_humidity;BME280_pressure;Samples;Min_cycle;Max_cycle;Signal;HPM_P1;HPM_P2
2020/12/20 00:00:49;;;;;;;5.20;4.10;;;20.90;31.20;;;;;;8291692;28;20062;-49
2020/12/20 00:04:50;;;;;;;4.97;4.07;;;20.90;31.10;;;;;;8293187;28;20120;-47
2020/12/20 00:08:50;;;;;;;4.00;3.60;;;20.90;31.20;;;;;;8274986;28;20503;-47
2020/12/20 00:12:51;;;;;;;5.47;4.80;;;20.80;31.10;;;;;;8263154;28;20499;-47
2020/12/20 00:16:55;;;;;;;5.95;4.63;;;20.80;31.20;;;;;;8260531;28;20042;-46
2020/12/20 00:20:55;;;;;;;5.40;4.30;;;20.80;31.20;;;;;;8278732;28;20187;-47
2020/12/20 00:24:56;;;;;;;4.87;4.07;;;20.80;31.20;;;;;;8264143;28;20443;-47
2020/12/20 00:28:57;;;;;;;6.53;4.10;;;20.80;31.20;;;;;;8260283;28;20038;-48
2020/12/20 00:32:57;;;;;;;6.07;4.60;;;20.80;31.20;;;;;;8264412;28;20061;-47
2020/12/20 00:36:58;;;;;;;6.00;4.53;;;20.70;31.20;;;;;;8258859;28;20046;-47
2020/12/20 00:40:58;;;;;;;5.40;4.27;;;20.70;31.20;;;;;;8285830;28;20077;-47
2020/12/20 00:44:59;;;;;;;5.00;4.07;;;20.70;31.20;;;;;;8319380;28;20044;-47
2020/12/20 00:48:59;;;;;;;5.97;4.70;;;20.70;31.20;;;;;;8294852;28;20049;-47
2020/12/20 00:53:00;;;;;;;5.67;4.70;;;20.70;31.30;;;;;;8281163;28;20065;-48
2020/12/20 00:57:00;;;;;;;5.70;4.13;;;20.60;31.20;;;;;;8279100;28;20378;-46
2020/12/20 01:01:01;;;;;;;5.20;3.83;;;20.60;31.20;;;;;;8262885;28;20118;-47
2020/12/20 01:05:02;;;;;;;5.70;4.30;;;20.60;31.20;;;;;;8280553;28;20117;-47
2020/12/20 01:09:03;;;;;;;6.07;4.33;;;20.60;31.20;;;;;;8298160;28;20042;-47
2020/12/20 01:13:04;;;;;;;;;;;20.60;31.30;;;;;;8269289;28;20105;-48
2020/12/20 01:17:04;;;;;;;6.47;4.40;;;20.60;31.30;;;;;;8277249;28;20366;-47
2020/12/20 01:21:05;;;;;;;6.50;4.90;;;20.60;31.30;;;;;;8278506;28;20480;-47
2020/12/20 01:25:05;;;;;;;5.20;4.03;;;20.50;31.30;;;;;;8271855;28;20034;-48
2020/12/20 01:29:06;;;;;;;5.50;4.20;;;20.50;31.30;;;;;;8297922;28;20065;-48
2020/12/20 01:33:06;;;;;;;5.40;4.27;;;20.50;31.30;;;;;;8297798;28;20030;-47
2020/12/20 01:37:07;;;;;;;5.83;4.50;;;20.50;31.20;;;;;;8295837;28;20038;-49
2020/12/20 01:41:08;;;;;;;6.47;4.97;;;20.50;31.20;;;;;;8301766;28;20092;-49
2020/12/20 01:45:09;;;;;;;5.25;4.45;;;20.50;31.20;;;;;;8276806;28;20042;-48
2020/12/20 01:49:10;;;;;;;5.82;4.85;;;20.50;31.30;;;;;;8263357;28;20454;-48
2020/12/20 01:53:14;;;;;;;5.15;4.65;;;20.50;31.30;;;;;;8264759;28;20034;-48
2020/12/20 01:57:15;;;;;;;4.80;3.97;;;20.50;31.30;;;;;;8264464;28;20497;-48
2020/12/20 02:01:15;;;;;;;5.73;4.47;;;20.50;31.30;;;;;;8267127;28;20047;-48
2020/12/20 02:05:16;;;;;;;5.83;4.37;;;20.40;31.30;;;;;;8264613;28;20038;-48
2020/12/20 02:09:18;;;;;;;5.03;4.45;;;20.40;31.30;;;;;;8264083;28;20034;-48
2020/12/20 02:13:19;;;;;;;5.50;4.32;;;20.40;31.30;;;;;;8262452;28;20444;-47
2020/12/20 02:17:20;;;;;;;5.67;4.60;;;20.40;31.30;;;;;;8268368;28;20042;-47
2020/12/20 02:21:23;;;;;;;6.00;4.30;;;20.40;31.30;;;;;;8263544;28;20376;-47
2020/12/20 02:25:24;;;;;;;6.50;4.50;;;20.40;31.30;;;;;;8262054;28;20034;-47
2020/12/20 02:29:25;;;;;;;5.53;4.10;;;20.40;31.30;;;;;;8263623;28;20575;-48
2020/12/20 02:33:25;;;;;;;5.27;4.30;;;20.30;31.30;;;;;;8267670;28;20035;-49
2020/12/20 02:37:26;;;;;;;5.63;4.20;;;20.40;31.40;;;;;;8261403;28;20063;-47
2020/12/20 02:41:26;;;;;;;5.80;4.20;;;20.30;31.30;;;;;;8263132;28;20046;-46
2020/12/20 02:45:27;;;;;;;5.53;4.27;;;20.30;31.30;;;;;;8263366;28;20126;-48
2020/12/20 02:49:27;;;;;;;5.53;4.03;;;20.30;31.30;;;;;;8261344;28;20042;-49
2020/12/20 02:53:28;;;;;;;5.17;4.17;;;20.30;31.30;;;;;;8267199;28;20122;-47
2020/12/20 02:57:28;;;;;;;5.30;4.50;;;20.30;31.30;;;;;;8262484;28;20038;-47
2020/12/20 03:01:29;;;;;;;5.33;4.33;;;20.30;31.30;;;;;;8260412;28;20058;-48
2020/12/20 03:05:29;;;;;;;5.83;4.17;;;20.30;31.40;;;;;;8262626;28;20026;-47
2020/12/20 03:09:30;;;;;;;4.77;4.10;;;20.20;31.30;;;;;;8266522;28;20065;-47
2020/12/20 03:13:30;;;;;;;4.43;3.80;;;20.30;31.30;;;;;;8260620;28;20042;-48
2020/12/20 03:17:32;;;;;;;5.23;3.83;;;20.20;31.30;;;;;;8261980;28;20153;-48
2020/12/20 03:21:32;;;;;;;;;;;20.20;31.30;;;;;;8262050;28;20046;-48
2020/12/20 03:25:33;;;;;;;4.67;4.00;;;20.20;31.30;;;;;;8269328;28;20401;-51
2020/12/20 03:29:33;;;;;;;4.47;3.80;;;20.20;31.30;;;;;;8280638;28;20129;-47
2020/12/20 03:33:34;;;;;;;4.43;3.70;;;20.10;31.30;;;;;;8261627;28;20039;-47
2020/12/20 03:37:35;;;;;;;4.17;3.60;;;20.20;31.30;;;;;;8259751;28;20038;-48
2020/12/20 03:41:36;;;;;;;4.50;3.80;;;20.10;31.30;;;;;;8259867;28;20038;-48
2020/12/20 03:45:36;;;;;;;4.70;3.80;;;20.10;31.30;;;;;;8289485;28;20040;-48
2020/12/20 03:49:37;;;;;;;4.67;3.67;;;20.10;31.30;;;;;;8259434;28;20039;-47
2020/12/20 03:53:37;;;;;;;4.63;3.73;;;20.10;31.30;;;;;;8276925;28;20041;-47
2020/12/20 03:57:38;;;;;;;5.03;3.60;;;20.10;31.30;;;;;;8293338;28;20475;-47
2020/12/20 04:01:38;;;;;;;4.60;3.67;;;20.10;31.30;;;;;;8271927;28;20265;-48
2020/12/20 04:05:39;;;;;;;4.57;4.13;;;20.10;31.30;;;;;;8293013;28;20600;-48
2020/12/20 04:09:39;;;;;;;5.53;3.77;;;20.10;31.30;;;;;;8291819;28;20046;-46
2020/12/20 04:13:40;;;;;;;4.10;3.53;;;20.00;31.30;;;;;;8293184;28;20579;-47
2020/12/20 04:17:41;;;;;;;4.80;3.83;;;20.10;31.40;;;;;;8292700;28;20041;-48
2020/12/20 04:21:41;;;;;;;4.40;3.80;;;20.10;31.40;;;;;;8294925;28;20056;-47
2020/12/20 04:25:42;;;;;;;4.80;3.97;;;20.10;31.40;;;;;;8268607;28;20030;-47
2020/12/20 04:29:42;;;;;;;4.60;3.70;;;20.20;31.40;;;;;;8275586;28;20133;-48
2020/12/20 04:33:46;;;;;;;4.77;3.97;;;20.20;31.30;;;;;;8283789;28;20053;-50
2020/12/20 04:37:46;;;;;;;4.80;4.20;;;20.30;31.20;;;;;;8295840;28;20526;-47
2020/12/20 04:41:47;;;;;;;4.97;3.87;;;20.30;31.10;;;;;;8292275;28;20145;-47
2020/12/20 04:45:52;;;;;;;3.95;3.58;;;20.30;31.10;;;;;;8289438;28;20096;-47
2020/12/20 04:49:53;;;;;;;4.38;3.85;;;20.40;31.10;;;;;;8270091;28;20026;-48
2020/12/20 04:53:57;;;;;;;4.00;3.20;;;20.40;31.10;;;;;;8296575;28;20043;-47
2020/12/20 04:57:58;;;;;;;4.50;3.67;;;20.40;31.30;;;;;;8268158;28;20179;-47
2020/12/20 05:01:58;;;;;;;5.20;3.90;;;20.50;31.00;;;;;;8281444;28;20428;-47
2020/12/20 05:05:59;;;;;;;4.03;3.30;;;20.50;31.00;;;;;;8259673;28;20042;-48
2020/12/20 05:10:00;;;;;;;5.10;4.03;;;20.50;30.90;;;;;;8282375;28;20463;-47
2020/12/20 05:14:02;;;;;;;4.70;3.33;;;20.50;30.90;;;;;;8263769;28;20026;-47
2020/12/20 05:18:07;;;;;;;4.75;3.30;;;20.60;30.90;;;;;;8278941;28;20084;-48
2020/12/20 05:22:15;;;;;;;4.28;3.40;;;20.60;30.80;;;;;;8286101;28;20061;-47
2020/12/20 05:26:16;;;;;;;3.33;3.03;;;20.60;30.80;;;;;;8272711;28;20121;-48
2020/12/20 05:30:17;;;;;;;4.10;3.37;;;20.70;30.80;;;;;;8295955;28;20399;-48
2020/12/20 05:34:20;;;;;;;;;;;20.70;30.80;;;;;;8290274;28;20038;-48
2020/12/20 05:38:21;;;;;;;4.57;3.53;;;20.70;30.70;;;;;;8277833;28;19914;-48
2020/12/20 05:42:25;;;;;;;4.15;3.65;;;20.70;30.70;;;;;;8280779;28;20045;-47
2020/12/20 05:46:27;;;;;;;3.83;3.42;;;20.70;30.70;;;;;;8283246;28;20038;-47
2020/12/20 05:50:28;;;;;;;4.32;3.63;;;20.70;30.70;;;;;;8267111;28;20365;-47
2020/12/20 05:54:34;;;;;;;3.78;3.38;;;20.80;30.70;;;;;;8264638;28;20491;-48
2020/12/20 05:58:35;;;;;;;4.05;3.35;;;20.80;30.70;;;;;;8295000;28;20053;-47
2020/12/20 06:02:35;;;;;;;4.53;3.37;;;20.80;30.70;;;;;;8297065;28;20491;-47
2020/12/20 06:06:40;;;;;;;4.90;3.20;;;20.80;30.70;;;;;;8301150;28;20042;-46
2020/12/20 06:10:44;;;;;;;4.10;3.70;;;20.80;30.60;;;;;;8295103;28;20104;-47
2020/12/20 06:14:46;;;;;;;5.78;3.95;;;20.80;30.60;;;;;;8296525;28;20044;-48
2020/12/20 06:18:50;;;;;;;3.90;3.47;;;20.90;30.60;;;;;;8293659;28;20030;-48
2020/12/20 06:22:53;;;;;;;4.18;3.65;;;20.90;30.60;;;;;;8273604;28;20479;-48
2020/12/20 06:27:01;;;;;;;4.85;3.72;;;20.90;30.60;;;;;;8300473;28;20513;-47
2020/12/20 06:31:02;;;;;;;4.00;3.35;;;20.90;30.60;;;;;;8266664;28;20038;-48
2020/12/20 06:35:23;;;;;;;3.90;3.17;;;20.90;30.60;;;;;;8263351;28;20061;-47
2020/12/20 06:39:42;;;;;;;4.20;3.47;;;20.90;30.60;;;;;;8262930;28;20524;-48
2020/12/20 06:43:44;;;;;;;3.70;3.30;;;20.90;30.60;;;;;;8270311;28;20513;-47
2020/12/20 06:47:53;;;;;;;3.72;3.20;;;20.90;30.60;;;;;;8282856;28;20027;-47
2020/12/20 06:52:22;;;;;;;4.40;3.55;;;21.00;30.60;;;;;;8285466;28;20144;-49
2020/12/20 06:56:24;;;;;;;3.80;3.33;;;20.90;30.50;;;;;;8263148;28;20085;-47
2020/12/20 07:00:37;;;;;;;;;;;21.00;30.50;;;;;;8262070;28;20056;-48
2020/12/20 07:04:40;;;;;;;3.85;3.33;;;21.00;30.50;;;;;;8285158;28;19921;-48
2020/12/20 07:08:40;;;;;;;4.38;3.40;;;21.00;30.50;;;;;;8266899;28;20077;-48
2020/12/20 07:12:44;;;;;;;4.97;3.30;;;20.90;30.50;;;;;;8284424;28;20042;-48
2020/12/20 07:16:45;;;;;;;5.10;3.65;;;20.90;30.40;;;;;;8261859;28;20073;-46
2020/12/20 07:20:45;;;;;;;5.10;3.73;;;20.90;31.00;;;;;;8261657;28;20377;-47
2020/12/20 07:24:46;;;;;;;4.20;3.30;;;21.00;30.50;;;;;;8265370;28;20053;-47
2020/12/20 07:28:47;;;;;;;;;;;21.00;30.50;;;;;;8296371;28;20060;-47
2020/12/20 07:32:47;;;;;;;4.30;3.33;;;21.00;30.40;;;;;;8284576;28;20452;-49
2020/12/20 07:36:48;;;;;;;5.57;4.03;;;21.00;30.60;;;;;;8290696;28;20060;-48
2020/12/20 07:40:49;;;;;;;5.07;3.47;;;21.00;30.70;;;;;;8289324;28;20145;-47
2020/12/20 07:44:54;;;;;;;4.73;4.00;;;21.00;31.30;;;;;;8291955;28;20034;-48
2020/12/20 07:48:54;;;;;;;5.22;3.60;;;21.00;31.30;;;;;;8283734;28;20045;-48
2020/12/20 07:52:55;;;;;;;3.97;3.57;;;21.10;31.40;;;;;;8254507;28;20030;-48
2020/12/20 07:56:56;;;;;;;3.60;3.30;;;21.10;31.40;;;;;;8253733;28;20034;-48
2020/12/20 08:01:06;;;;;;;3.80;3.27;;;21.10;31.50;;;;;;8256486;28;20046;-48
2020/12/20 08:05:12;;;;;;;4.40;3.70;;;21.10;31.50;;;;;;8283880;28;20390;-46
2020/12/20 08:09:23;;;;;;;3.88;3.20;;;21.10;31.50;;;;;;8263295;28;20595;-48
2020/12/20 08:13:24;;;;;;;4.72;3.05;;;21.20;31.50;;;;;;8256328;28;20038;-48
2020/12/20 08:17:25;;;;;;;4.90;3.00;;;21.20;31.50;;;;;;8258878;28;20037;-49
2020/12/20 08:21:57;;;;;;;4.15;3.35;;;21.30;31.50;;;;;;8287768;28;20054;-50
2020/12/20 08:26:00;;;;;;;6.40;3.15;;;21.30;31.50;;;;;;8222642;28;20035;-48
2020/12/20 08:30:05;;;;;;;4.10;3.20;;;21.30;31.50;;;;;;8223638;28;20101;-48
2020/12/20 08:34:24;;;;;;;3.50;3.13;;;21.30;31.50;;;;;;8264630;28;20038;-48
2020/12/20 08:38:25;;;;;;;3.88;3.47;;;21.40;31.40;;;;;;8283695;28;20095;-48
2020/12/20 08:42:33;;;;;;;4.00;3.07;;;21.30;31.40;;;;;;8287613;28;20503;-47
2020/12/20 08:46:37;;;;;;;4.30;3.25;;;21.40;31.40;;;;;;8248994;28;20105;-48
2020/12/20 08:50:37;;;;;;;3.60;3.00;;;21.40;31.40;;;;;;8242224;28;20046;-48
2020/12/20 08:54:39;;;;;;;4.03;3.30;;;21.40;31.40;;;;;;8229790;28;20117;-48
2020/12/20 08:58:46;;;;;;;5.10;3.35;;;21.40;31.40;;;;;;8221533;28;20114;-47
2020/12/20 09:02:56;;;;;;;4.28;3.30;;;21.40;31.50;;;;;;8272011;28;20499;-47
2020/12/20 09:07:05;;;;;;;4.00;3.43;;;21.40;31.50;;;;;;8260721;28;20034;-49
2020/12/20 09:11:06;;;;;;;4.03;3.10;;;21.40;31.50;;;;;;8269693;28;20045;-47
2020/12/20 09:15:10;;;;;;;4.00;3.10;;;21.40;31.50;;;;;;8252411;28;20027;-48
2020/12/20 09:19:13;;;;;;;3.88;3.20;;;21.40;31.60;;;;;;8252984;28;20555;-49
2020/12/20 09:23:24;;;;;;;3.50;3.20;;;21.40;31.60;;;;;;8227250;28;20042;-48
2020/12/20 09:27:24;;;;;;;3.92;3.28;;;21.40;31.60;;;;;;8240336;28;20035;-48
2020/12/20 09:31:27;;;;;;;3.73;3.00;;;21.40;31.50;;;;;;8250925;28;20117;-47
2020/12/20 09:35:27;;;;;;;4.28;3.28;;;21.40;31.60;;;;;;8263830;28;20491;-49
2020/12/20 09:39:28;;;;;;;3.93;2.93;;;21.50;31.70;;;;;;8292872;28;20048;-48
2020/12/20 09:43:29;;;;;;;4.30;3.50;;;21.50;31.70;;;;;;8257146;28;20054;-49
2020/12/20 09:47:29;;;;;;;3.53;3.22;;;21.50;31.60;;;;;;8237253;28;20112;-48
2020/12/20 09:51:33;;;;;;;4.33;2.83;;;21.50;31.70;;;;;;8278741;28;20561;-48
2020/12/20 09:55:33;;;;;;;3.65;2.97;;;21.50;31.70;;;;;;8259207;28;20499;-49
2020/12/20 09:59:34;;;;;;;4.17;3.07;;;21.50;31.60;;;;;;8233749;28;20042;-47
2020/12/20 10:03:34;;;;;;;3.77;3.13;;;21.50;31.70;;;;;;8241631;28;20133;-49
2020/12/20 10:07:35;;;;;;;4.17;3.20;;;21.50;31.60;;;;;;8243441;28;20039;-48
2020/12/20 10:11:35;;;;;;;3.40;3.10;;;21.50;31.70;;;;;;8226290;28;20030;-48
2020/12/20 10:15:36;;;;;;;5.10;3.20;;;21.50;31.70;;;;;;8252996;28;20037;-47
2020/12/20 10:19:36;;;;;;;4.07;3.37;;;21.50;32.00;;;;;;8256105;28;20088;-46
2020/12/20 10:23:37;;;;;;;5.20;3.23;;;21.50;31.90;;;;;;8272557;28;20057;-47
2020/12/20 10:27:37;;;;;;;3.10;2.80;;;21.60;31.90;;;;;;8285123;28;20072;-47
2020/12/20 10:31:38;;;;;;;3.93;3.27;;;21.60;31.90;;;;;;8251101;28;20105;-48
2020/12/20 10:35:38;;;;;;;4.00;2.90;;;21.60;31.80;;;;;;8227571;28;20043;-47
2020/12/20 10:39:39;;;;;;;4.50;2.80;;;21.60;31.90;;;;;;8226503;28;20046;-46
2020/12/20 10:43:39;;;;;;;4.20;3.20;;;21.60;31.90;;;;;;8259729;28;20518;-47
2020/12/20 10:47:41;;;;;;;3.67;2.87;;;21.60;31.90;;;;;;8250639;28;20116;-48
2020/12/20 10:51:41;;;;;;;3.08;2.78;;;21.60;31.90;;;;;;8252334;28;20454;-47
2020/12/20 10:55:41;;;;;;;3.87;3.13;;;21.60;31.90;;;;;;8259038;28;20112;-47
2020/12/20 10:59:42;;;;;;;4.60;3.00;;;21.60;31.80;;;;;;8258588;28;20097;-48
2020/12/20 11:03:43;;;;;;;4.23;2.83;;;21.50;31.80;;;;;;8256815;28;20034;-48
2020/12/20 11:07:44;;;;;;;;;;;21.60;31.80;;;;;;8271539;28;20030;-47
2020/12/20 11:11:44;;;;;;;5.30;2.63;;;21.60;31.80;;;;;;8257620;28;19924;-48
2020/12/20 11:15:47;;;;;;;3.47;3.10;;;21.60;31.80;;;;;;8252938;28;20077;-49
2020/12/20 11:19:48;;;;;;;3.38;2.85;;;21.60;31.80;;;;;;8247290;28;20456;-49
2020/12/20 11:23:49;;;;;;;3.20;2.83;;;21.60;31.80;;;;;;8244442;28;20038;-48
2020/12/20 11:27:49;;;;;;;4.00;2.88;;;21.60;31.80;;;;;;8256704;28;20031;-48
2020/12/20 11:31:50;;;;;;;3.70;3.13;;;21.60;31.90;;;;;;8237353;28;20522;-48
2020/12/20 11:35:50;;;;;;;3.40;3.10;;;21.60;31.90;;;;;;8267469;28;20048;-47
2020/12/20 11:39:51;;;;;;;3.87;3.10;;;21.70;32.00;;;;;;8284484;28;20077;-47
2020/12/20 11:43:52;;;;;;;3.13;2.80;;;21.70;32.00;;;;;;8259986;28;20080;-49
2020/12/20 11:47:53;;;;;;;;;;;21.70;31.90;;;;;;8273837;28;20381;-49
2020/12/20 11:51:55;;;;;;;3.13;2.83;;;21.70;31.90;;;;;;8286145;28;19925;-48
2020/12/20 11:55:56;;;;;;;4.82;3.45;;;21.70;31.90;;;;;;8276304;28;20041;-49
2020/12/20 11:59:56;;;;;;;10.80;3.50;;;21.70;31.60;;;;;;8257521;28;20558;-48
2020/12/20 12:03:57;;;;;;;11.03;3.37;;;21.70;32.20;;;;;;8255268;28;20042;-49
2020/12/20 12:07:57;;;;;;;7.27;3.73;;;21.70;32.10;;;;;;8276294;28;20041;-48
2020/12/20 12:11:58;;;;;;;15.90;3.87;;;21.70;32.30;;;;;;8254686;28;20411;-49
2020/12/20 12:15:58;;;;;;;7.20;3.47;;;21.80;32.30;;;;;;8257727;28;20073;-49
2020/12/20 12:19:59;;;;;;;7.73;3.30;;;21.80;32.30;;;;;;8254251;28;20185;-49
2020/12/20 12:23:59;;;;;;;13.63;2.70;;;21.80;32.30;;;;;;8253606;28;20100;-48
2020/12/20 12:28:00;;;;;;;13.07;3.63;;;21.80;32.20;;;;;;8279255;28;20038;-49
2020/12/20 12:32:01;;;;;;;14.52;3.35;;;21.80;32.20;;;;;;8286581;28;20073;-48
2020/12/20 12:36:03;;;;;;;5.88;3.00;;;21.90;32.20;;;;;;8271312;28;20042;-49
2020/12/20 12:40:05;;;;;;;8.88;3.22;;;21.90;32.20;;;;;;8255329;28;20077;-48
2020/12/20 12:44:07;;;;;;;7.00;2.85;;;21.90;32.20;;;;;;8286307;28;20046;-48
2020/12/20 12:48:07;;;;;;;7.95;2.97;;;21.90;32.20;;;;;;8286547;28;20030;-49
2020/12/20 12:52:08;;;;;;;6.50;3.40;;;21.90;32.20;;;;;;8285039;28;20054;-48
2020/12/20 12:56:10;;;;;;;12.02;3.25;;;21.90;32.20;;;;;;8265908;28;20041;-49
2020/12/20 13:00:10;;;;;;;;;;;21.90;32.20;;;;;;8270062;28;20054;-48
2020/12/20 13:04:11;;;;;;;5.20;3.37;;;21.90;32.20;;;;;;8263089;28;19921;-48
2020/12/20 13:08:12;;;;;;;5.65;3.35;;;21.90;32.20;;;;;;8292908;28;20038;-48
2020/12/20 13:12:14;;;;;;;6.03;3.30;;;21.90;32.10;;;;;;8296659;28;20100;-47
2020/12/20 13:16:14;;;;;;;3.20;2.72;;;21.90;32.10;;;;;;8261338;28;20038;-49
2020/12/20 13:20:15;;;;;;;4.00;2.97;;;21.90;32.20;;;;;;8259752;28;20510;-48
2020/12/20 13:24:15;;;;;;;6.47;3.17;;;21.90;32.10;;;;;;8281181;28;20026;-47
2020/12/20 13:28:16;;;;;;;4.33;3.07;;;22.00;32.20;;;;;;8289338;28;20042;-52
2020/12/20 13:32:16;;;;;;;4.47;3.30;;;21.90;32.10;;;;;;8259584;28;20035;-51
2020/12/20 13:36:18;;;;;;;7.13;2.83;;;22.00;32.20;;;;;;8259335;28;20402;-47
2020/12/20 13:40:18;;;;;;;;;;;22.00;32.10;;;;;;8282440;28;20423;-47
2020/12/20 13:44:19;;;;;;;3.67;2.83;;;22.00;32.20;;;;;;8263760;28;19914;-47
2020/12/20 13:48:20;;;;;;;5.40;3.28;;;22.00;32.20;;;;;;8279686;28;20105;-47
2020/12/20 13:52:20;;;;;;;5.18;3.13;;;22.00;32.20;;;;;;8279171;28;20050;-47
2020/12/20 13:56:22;;;;;;;5.47;3.10;;;22.00;32.20;;;;;;8291381;28;20115;-51
2020/12/20 14:00:23;;;;;;;4.18;3.08;;;22.00;32.20;;;;;;8268676;28;20057;-48
2020/12/20 14:04:23;;;;;;;3.88;3.10;;;22.00;32.20;;;;;;8261206;28;20565;-48
2020/12/20 14:08:24;;;;;;;5.60;3.20;;;22.00;32.20;;;;;;8257958;28;20034;-50
2020/12/20 14:12:24;;;;;;;6.83;3.17;;;22.00;32.30;;;;;;8273733;28;20033;-48
2020/12/20 14:16:25;;;;;;;4.88;3.22;;;22.00;32.40;;;;;;8288732;28;20049;-47
2020/12/20 14:20:25;;;;;;;4.63;3.20;;;22.00;32.40;;;;;;8279430;28;20096;-46
2020/12/20 14:24:26;;;;;;;7.60;3.57;;;22.00;32.40;;;;;;8286664;28;20034;-51
2020/12/20 14:28:26;;;;;;;5.53;3.80;;;22.00;32.40;;;;;;8288181;28;20044;-50
2020/12/20 14:32:27;;;;;;;7.10;4.70;;;22.00;32.30;;;;;;8289664;28;20038;-49
2020/12/20 14:36:28;;;;;;;7.77;5.07;;;22.00;32.30;;;;;;8292965;28;20538;-46
2020/12/20 14:40:29;;;;;;;9.05;5.57;;;22.00;32.30;;;;;;8289674;28;20108;-47
2020/12/20 14:44:30;;;;;;;10.40;6.22;;;22.00;32.20;;;;;;8289197;28;20076;-47
2020/12/20 14:48:31;;;;;;;10.47;6.77;;;22.00;32.20;;;;;;8266338;28;20583;-50
2020/12/20 14:52:32;;;;;;;;;;;22.00;32.10;;;;;;8254642;28;20443;-49
2020/12/20 14:56:32;;;;;;;11.60;7.60;;;22.00;32.00;;;;;;8261094;28;19935;-48
2020/12/20 15:00:33;;;;;;;11.53;7.30;;;22.00;32.10;;;;;;8256452;28;20046;-47
2020/12/20 15:04:33;;;;;;;15.13;8.20;;;22.10;32.10;;;;;;8262079;28;20085;-48
2020/12/20 15:08:36;;;;;;;12.53;7.87;;;22.00;32.10;;;;;;8289172;28;20065;-48
2020/12/20 15:12:36;;;;;;;11.73;7.22;;;22.10;32.10;;;;;;8268863;28;20058;-47
2020/12/20 15:16:37;;;;;;;13.10;7.93;;;22.10;32.10;;;;;;8257139;28;20450;-47
2020/12/20 15:20:44;;;;;;;12.50;7.77;;;22.10;32.10;;;;;;8276343;28;20546;-47
2020/12/20 15:24:45;;;;;;;12.85;8.05;;;22.00;32.10;;;;;;8278925;28;20035;-47
2020/12/20 15:28:46;;;;;;;11.83;7.17;;;22.00;32.20;;;;;;8266541;28;20035;-49
2020/12/20 15:32:46;;;;;;;;;;;22.10;32.20;;;;;;8288901;28;20046;-50
2020/12/20 15:36:47;;;;;;;12.50;7.93;;;22.00;32.20;;;;;;8272777;28;20267;-48
2020/12/20 15:40:48;;;;;;;11.80;7.23;;;22.00;32.20;;;;;;8255012;28;20050;-48
2020/12/20 15:44:48;;;;;;;10.53;7.33;;;22.00;32.20;;;;;;8272891;28;20121;-50
2020/12/20 15:48:49;;;;;;;11.37;6.33;;;22.10;32.20;;;;;;8265858;28;20034;-47
2020/12/20 15:52:49;;;;;;;10.77;6.93;;;22.10;32.20;;;;;;8287080;28;20053;-51
2020/12/20 15:56:50;;;;;;;10.67;7.37;;;22.10;32.20;;;;;;8287527;28;20038;-51
2020/12/20 16:00:51;;;;;;;12.55;7.40;;;22.10;32.20;;;;;;8285375;28;20077;-50
2020/12/20 16:04:52;;;;;;;11.95;7.65;;;22.10;32.20;;;;;;8291436;28;20037;-51
2020/12/20 16:08:52;;;;;;;9.97;6.77;;;22.10;32.30;;;;;;8319027;28;20038;-51
2020/12/20 16:12:53;;;;;;;12.70;6.93;;;22.10;32.50;;;;;;8293305;28;20091;-52
2020/12/20 16:16:54;;;;;;;9.83;6.13;;;22.10;32.50;;;;;;8254987;28;20036;-52
2020/12/20 16:20:54;;;;;;;;;;;22.10;32.90;;;;;;8273424;28;21474;-50
2020/12/20 16:24:55;;;;;;;17.37;6.53;;;22.10;33.20;;;;;;8287096;28;19913;-50
2020/12/20 16:28:56;;;;;;;9.57;6.03;;;22.10;33.40;;;;;;8252926;28;20038;-49
2020/12/20 16:32:57;;;;;;;11.18;6.88;;;22.10;33.50;;;;;;8254396;28;20523;-51
2020/12/20 16:37:00;;;;;;;12.65;6.68;;;22.20;33.50;;;;;;8252812;28;20142;-53
2020/12/20 16:41:00;;;;;;;10.40;6.25;;;22.20;33.50;;;;;;8258456;28;20499;-52
2020/12/20 16:45:02;;;;;;;9.93;5.90;;;22.20;33.50;;;;;;8254021;28;20161;-50
2020/12/20 16:49:02;;;;;;;9.25;6.28;;;22.20;33.60;;;;;;8255453;28;20132;-49
2020/12/20 16:53:03;;;;;;;10.30;6.37;;;22.20;33.40;;;;;;8286367;28;20049;-50
2020/12/20 16:57:04;;;;;;;9.03;5.80;;;22.30;33.30;;;;;;8286744;28;20477;-50
2020/12/20 17:01:05;;;;;;;;;;;22.20;33.30;;;;;;8285884;28;20142;-51
2020/12/20 17:05:05;;;;;;;14.90;6.57;;;22.20;33.10;;;;;;8253528;28;19926;-50
2020/12/20 17:09:06;;;;;;;7.57;5.40;;;22.20;33.00;;;;;;8267095;28;20062;-49
2020/12/20 17:13:06;;;;;;;9.67;5.83;;;22.20;32.90;;;;;;8278417;28;20627;-49
2020/12/20 17:17:07;;;;;;;10.40;6.97;;;22.30;32.90;;;;;;8269579;28;20038;-52
2020/12/20 17:21:19;;;;;;;10.33;6.00;;;22.20;32.80;;;;;;8285849;28;20072;-49
2020/12/20 17:25:20;;;;;;;9.02;6.25;;;22.30;32.90;;;;;;8284020;28;20050;-50
2020/12/20 17:29:20;;;;;;;10.20;6.17;;;22.30;32.80;;;;;;8286171;28;20041;-49
2020/12/20 17:33:21;;;;;;;11.90;6.73;;;22.30;32.70;;;;;;8264532;28;20070;-54
2020/12/20 17:37:22;;;;;;;7.33;5.93;;;22.30;32.60;;;;;;8260148;28;20088;-51
2020/12/20 17:41:25;;;;;;;9.07;6.33;;;22.30;32.60;;;;;;8271766;28;20054;-51
2020/12/20 17:45:25;;;;;;;10.25;5.82;;;22.30;32.50;;;;;;8255526;28;20031;-49
2020/12/20 17:49:26;;;;;;;9.17;6.33;;;22.30;32.50;;;;;;8255179;28;20452;-50
2020/12/20 17:53:26;;;;;;;9.77;6.53;;;22.30;32.40;;;;;;8262401;28;20042;-50
2020/12/20 17:57:27;;;;;;;7.47;5.80;;;22.40;32.40;;;;;;8263682;28;20130;-52
2020/12/20 18:01:34;;;;;;;10.40;6.00;;;22.40;32.30;;;;;;8287206;28;20524;-50
2020/12/20 18:05:35;;;;;;;8.15;5.85;;;22.30;32.40;;;;;;8264074;28;20038;-50
2020/12/20 18:09:35;;;;;;;7.67;5.73;;;22.30;32.40;;;;;;8268770;28;20042;-51
2020/12/20 18:13:36;;;;;;;7.00;5.87;;;22.30;32.40;;;;;;8262431;28;20501;-51
2020/12/20 18:17:36;;;;;;;9.87;6.13;;;22.20;32.30;;;;;;8285041;28;20034;-49
2020/12/20 18:21:41;;;;;;;9.88;6.50;;;22.20;32.30;;;;;;8283636;28;20302;-49
2020/12/20 18:25:42;;;;;;;8.32;5.95;;;22.20;32.30;;;;;;8271394;28;20427;-49
2020/12/20 18:29:43;;;;;;;8.00;5.90;;;22.10;32.20;;;;;;8283815;28;20093;-50
2020/12/20 18:33:43;;;;;;;8.60;6.03;;;22.10;32.30;;;;;;8286877;28;20037;-49
2020/12/20 18:37:44;;;;;;;7.63;5.50;;;22.10;32.30;;;;;;8295911;28;20034;-48
2020/12/20 18:41:44;;;;;;;7.30;5.60;;;22.10;32.20;;;;;;8295981;28;20189;-50
2020/12/20 18:45:45;;;;;;;10.23;6.00;;;22.00;32.20;;;;;;8274347;28;20046;-49
2020/12/20 18:49:45;;;;;;;8.43;5.83;;;22.00;32.20;;;;;;8295629;28;20403;-49
2020/12/20 18:53:46;;;;;;;8.73;5.57;;;22.00;32.20;;;;;;8278381;28;20081;-49
2020/12/20 18:57:48;;;;;;;7.60;5.77;;;22.00;32.20;;;;;;8285537;28;20034;-50
2020/12/20 19:01:48;;;;;;;7.20;5.80;;;22.00;32.20;;;;;;8296355;28;20414;-49
2020/12/20 19:05:49;;;;;;;7.87;5.87;;;22.00;32.20;;;;;;8299225;28;20045;-48
2020/12/20 19:09:49;;;;;;;9.60;5.73;;;21.90;32.10;;;;;;8293588;28;20487;-49
2020/12/20 19:13:51;;;;;;;6.70;5.30;;;21.90;32.10;;;;;;8295098;28;20084;-49
2020/12/20 19:17:51;;;;;;;7.82;5.57;;;21.90;32.10;;;;;;8294721;28;20026;-49
2020/12/20 19:21:52;;;;;;;7.37;5.60;;;21.90;32.20;;;;;;8273370;28;20411;-48
2020/12/20 19:25:52;;;;;;;6.87;5.47;;;21.90;32.10;;;;;;8285052;28;20040;-48
2020/12/20 19:29:55;;;;;;;8.00;6.00;;;21.90;32.10;;;;;;8261964;28;20027;-50
2020/12/20 19:33:55;;;;;;;8.88;5.40;;;21.90;32.10;;;;;;8259814;28;20038;-48
2020/12/20 19:37:56;;;;;;;6.67;5.23;;;21.80;32.00;;;;;;8266231;28;20072;-50
2020/12/20 19:41:56;;;;;;;7.63;5.97;;;21.80;32.00;;;;;;8261622;28;20080;-49
2020/12/20 19:45:57;;;;;;;7.43;5.93;;;21.80;32.00;;;;;;8286583;28;20080;-49
2020/12/20 19:49:57;;;;;;;8.37;5.80;;;21.80;32.00;;;;;;8283050;28;20042;-50
2020/12/20 19:54:00;;;;;;;6.63;5.53;;;21.80;32.00;;;;;;8261299;28;20114;-52
2020/12/20 19:58:00;;;;;;;7.75;5.78;;;21.80;32.00;;;;;;8263876;28;20034;-51
2020/12/20 20:02:01;;;;;;;7.60;5.07;;;21.80;32.00;;;;;;8285242;28;20046;-49
2020/12/20 20:06:02;;;;;;;7.07;5.17;;;21.80;32.00;;;;;;8292781;28;20057;-49
2020/12/20 20:10:03;;;;;;;6.93;4.97;;;21.80;31.90;;;;;;8309917;28;20038;-52
2020/12/20 20:14:04;;;;;;;;;;;21.70;31.90;;;;;;8265188;28;20030;-49
2020/12/20 20:18:04;;;;;;;9.03;6.00;;;21.80;32.00;;;;;;8260460;28;19925;-49
2020/12/20 20:22:05;;;;;;;6.37;5.33;;;21.70;31.90;;;;;;8262395;28;20045;-52
2020/12/20 20:26:13;;;;;;;7.90;5.27;;;21.70;31.90;;;;;;8292925;28;20030;-52
2020/12/20 20:30:13;;;;;;;6.68;5.65;;;21.70;31.90;;;;;;8272938;28;20117;-53
2020/12/20 20:34:14;;;;;;;7.13;5.63;;;21.70;32.00;;;;;;8324561;28;20030;-52
2020/12/20 20:38:14;;;;;;;6.27;5.47;;;21.70;31.90;;;;;;8288593;28;20041;-50
2020/12/20 20:42:16;;;;;;;8.17;5.70;;;21.70;31.90;;;;;;8281203;28;20046;-52
2020/12/20 20:46:16;;;;;;;;;;;21.70;31.90;;;;;;8267363;28;20104;-49
2020/12/20 20:50:18;;;;;;;8.30;5.83;;;21.70;31.90;;;;;;8283314;28;19921;-50
2020/12/20 20:54:19;;;;;;;7.75;5.63;;;21.70;31.90;;;;;;8259845;28;20038;-49
2020/12/20 20:58:19;;;;;;;7.57;5.90;;;21.70;31.90;;;;;;8305479;28;20454;-49
2020/12/20 21:02:20;;;;;;;8.35;5.25;;;21.70;31.90;;;;;;8316395;28;20053;-48